Time;durP1;ratioP1;P1;durP2;ratioP2;P2;SDS_P1;SDS_P2;PMS_P1;PMS_P2;Temp;Humidity;BMP_temperature;BMP_pressure;BME280_temperature;BME280_humidity;BME280_pressure;Samples;Min_cycle;Max_cycle;Signal;HPM_P1;HPM_P2
2022/11/13 00:00:19;;;;;;;7.20;4.03;;;13.30;99.90;;;;;;5055120;28;20064;-73
2022/11/13 00:03:05;;;;;;;7.43;5.40;;;13.20;99.90;;;;;;5066868;28;20121;-73
2022/11/13 00:06:01;;;;;;;8.27;4.87;;;13.30;99.90;;;;;;5069290;28;20042;-71
2022/11/13 00:08:47;;;;;;;7.68;4.53;;;13.20;99.90;;;;;;5061530;28;20284;-73
2022/11/13 00:11:33;;;;;;;6.43;4.30;;;13.20;99.90;;;;;;5049282;28;20422;-72
2022/11/13 00:14:20;;;;;;;5.50;4.05;;;13.30;99.90;;;;;;5067347;28;20032;-73
2022/11/13 00:17:06;;;;;;;6.55;3.63;;;13.20;99.90;;;;;;5063486;28;20090;-74
2022/11/13 00:19:52;;;;;;;6.88;3.90;;;13.10;99.90;;;;;;5068924;28;20041;-73
2022/11/13 00:22:38;;;;;;;5.83;3.17;;;13.10;99.90;;;;;;5045968;28;20117;-74
2022/11/13 00:25:24;;;;;;;5.13;2.70;;;13.00;99.90;;;;;;5067893;28;20048;-71
2022/11/13 00:28:10;;;;;;;4.35;3.03;;;13.00;99.90;;;;;;5052464;28;20059;-72
2022/11/13 00:31:00;;;;;;;4.33;2.80;;;13.00;99.90;;;;;;5066040;28;20062;-73
2022/11/13 00:33:47;;;;;;;5.05;3.35;;;13.00;99.90;;;;;;5064704;28;20071;-71
2022/11/13 00:36:53;;;;;;;9.00;3.42;;;13.00;99.90;;;;;;5060318;28;20048;-72
2022/11/13 00:39:39;;;;;;;6.43;3.42;;;13.00;99.90;;;;;;5067440;28;20048;-72
2022/11/13 00:42:25;;;;;;;5.40;3.60;;;13.00;99.90;;;;;;5060598;28;20135;-72
2022/11/13 00:45:11;;;;;;;4.87;3.03;;;13.00;99.90;;;;;;5067655;28;20059;-70
2022/11/13 00:47:58;;;;;;;4.50;3.10;;;13.00;99.90;;;;;;5061144;28;20323;-70
2022/11/13 00:50:44;;;;;;;6.73;3.37;;;13.00;99.90;;;;;;5053435;28;20596;-70
2022/11/13 00:53:30;;;;;;;4.82;3.55;;;13.00;99.90;;;;;;5054670;28;20044;-70
2022/11/13 00:56:17;;;;;;;11.68;5.20;;;13.00;99.90;;;;;;5060354;28;20044;-75
2022/11/13 00:59:03;;;;;;;7.50;3.63;;;13.00;99.90;;;;;;5048140;28;20052;-70
2022/11/13 01:01:49;;;;;;;5.35;3.15;;;13.00;99.90;;;;;;5064084;28;20103;-70
2022/11/13 01:04:35;;;;;;;7.07;3.38;;;13.00;99.90;;;;;;5066072;28;20386;-70
2022/11/13 01:07:21;;;;;;;5.85;2.50;;;13.00;99.90;;;;;;5052054;28;20076;-70
2022/11/13 01:10:08;;;;;;;6.88;2.78;;;13.00;99.90;;;;;;5049780;28;20071;-74
2022/11/13 01:12:54;;;;;;;5.95;2.97;;;13.00;99.90;;;;;;5056080;28;20135;-75
2022/11/13 01:15:42;;;;;;;7.10;1.80;;;13.00;99.90;;;;;;5048650;28;20053;-71
2022/11/13 01:18:29;;;;;;;5.03;2.78;;;13.00;99.90;;;;;;5064225;28;20063;-71
2022/11/13 01:21:17;;;;;;;9.98;2.72;;;13.10;99.90;;;;;;5052474;28;20363;-71
2022/11/13 01:24:03;;;;;;;11.27;2.28;;;13.00;99.90;;;;;;5064530;28;20155;-70
2022/11/13 01:26:50;;;;;;;4.43;2.35;;;13.00;99.90;;;;;;5062103;28;20037;-69
2022/11/13 01:29:37;;;;;;;10.03;3.93;;;13.00;99.90;;;;;;5067270;28;20115;-71
2022/11/13 01:32:22;;;;;;;;;;;13.00;99.90;;;;;;5057925;28;20040;-70
2022/11/13 01:35:08;;;;;;;7.35;2.35;;;13.00;99.90;;;;;;5038079;28;19925;-69
2022/11/13 01:37:55;;;;;;;10.85;2.88;;;13.00;99.90;;;;;;5049488;28;20355;-69
2022/11/13 01:40:45;;;;;;;6.40;2.10;;;12.90;99.90;;;;;;5057151;28;20045;-69
2022/11/13 01:43:37;;;;;;;9.10;2.80;;;12.80;99.90;;;;;;5055333;28;20052;-70
2022/11/13 01:46:37;;;;;;;11.60;3.80;;;12.70;99.90;;;;;;5051792;28;20041;-69
2022/11/13 01:49:32;;;;;;;8.38;2.60;;;12.70;99.90;;;;;;5064295;28;20124;-70
2022/11/13 01:52:20;;;;;;;5.65;2.78;;;12.70;99.90;;;;;;5050147;28;20490;-70
2022/11/13 01:55:16;;;;;;;6.13;2.47;;;12.50;99.90;;;;;;5064340;28;20040;-69
2022/11/13 01:58:07;;;;;;;6.93;3.22;;;12.50;99.90;;;;;;5060749;28;20135;-72
2022/11/13 02:00:53;;;;;;;4.97;1.80;;;12.50;99.90;;;;;;5059333;28;20066;-73
2022/11/13 02:03:39;;;;;;;5.57;2.20;;;12.50;99.90;;;;;;5065307;28;20049;-71
2022/11/13 02:06:41;;;;;;;6.32;3.03;;;12.50;99.90;;;;;;5065712;28;20045;-71
2022/11/13 02:09:39;;;;;;;7.32;1.98;;;12.40;99.90;;;;;;5066514;28;20081;-70
2022/11/13 02:12:39;;;;;;;12.52;2.85;;;12.50;99.90;;;;;;5067376;28;20143;-72
2022/11/13 02:15:26;;;;;;;5.13;2.03;;;12.40;99.90;;;;;;5045629;28;20478;-71
2022/11/13 02:18:13;;;;;;;;;;;12.40;99.90;;;;;;5046106;28;20041;-70
2022/11/13 02:21:05;;;;;;;4.25;2.40;;;12.40;99.90;;;;;;5045367;28;19928;-70
2022/11/13 02:24:28;;;;;;;3.72;2.42;;;12.40;99.90;;;;;;5048605;28;20041;-70
2022/11/13 02:27:20;;;;;;;8.00;3.45;;;12.40;99.90;;;;;;5035161;28;20447;-70
2022/11/13 02:30:11;;;;;;;6.97;2.83;;;12.40;99.90;;;;;;5036502;28;20549;-70
2022/11/13 02:33:00;;;;;;;7.20;4.18;;;12.40;99.90;;;;;;5036484;28;20068;-71
2022/11/13 02:35:46;;;;;;;6.80;3.30;;;12.50;99.90;;;;;;5067306;28;20491;-71
2022/11/13 02:38:35;;;;;;;8.73;3.97;;;12.50;99.90;;;;;;5066751;28;20053;-71
2022/11/13 02:41:21;;;;;;;7.20;4.43;;;12.50;99.90;;;;;;5036239;28;20041;-71
2022/11/13 02:44:07;;;;;;;11.60;3.15;;;12.50;99.90;;;;;;5036559;28;20502;-70
2022/11/13 02:46:53;;;;;;;9.38;2.97;;;12.50;99.90;;;;;;5054403;28;20127;-70
2022/11/13 02:49:39;;;;;;;10.32;2.92;;;12.50;99.90;;;;;;5049868;28;20045;-73
2022/11/13 02:52:25;;;;;;;8.05;2.92;;;12.60;99.90;;;;;;5049849;28;20471;-73
2022/11/13 02:55:12;;;;;;;5.57;2.27;;;12.60;99.90;;;;;;5048545;28;20049;-70
2022/11/13 02:57:58;;;;;;;9.07;3.63;;;12.60;99.90;;;;;;5050247;28;20076;-71
2022/11/13 03:00:44;;;;;;;5.07;2.63;;;12.60;99.90;;;;;;5050238;28;20080;-70
2022/11/13 03:03:30;;;;;;;16.02;3.58;;;12.60;99.90;;;;;;5050152;28;20053;-70
2022/11/13 03:06:36;;;;;;;6.65;2.90;;;12.60;99.90;;;;;;5049990;28;20136;-71
2022/11/13 03:09:22;;;;;;;12.10;2.78;;;12.70;99.90;;;;;;5064143;28;20066;-71
2022/11/13 03:12:09;;;;;;;11.80;2.80;;;12.70;99.90;;;;;;5050450;28;20057;-77
2022/11/13 03:14:55;;;;;;;3.95;2.15;;;12.70;99.90;;;;;;5050137;28;20295;-71
2022/11/13 03:17:41;;;;;;;10.02;3.08;;;12.70;99.90;;;;;;5051005;28;20048;-71
2022/11/13 03:20:27;;;;;;;7.93;2.43;;;12.70;99.90;;;;;;5049596;28;20115;-71
2022/11/13 03:23:13;;;;;;;7.60;2.63;;;12.70;99.90;;;;;;5049763;28;20083;-71
2022/11/13 03:26:05;;;;;;;5.13;1.98;;;12.70;99.90;;;;;;5049545;28;20565;-72
2022/11/13 03:28:51;;;;;;;4.22;2.63;;;12.70;99.90;;;;;;5049624;28;20171;-70
2022/11/13 03:31:37;;;;;;;6.38;2.55;;;12.70;99.90;;;;;;5049212;28;20049;-72
2022/11/13 03:34:24;;;;;;;6.18;2.20;;;12.70;99.90;;;;;;5062747;28;20052;-71
2022/11/13 03:37:10;;;;;;;4.20;1.73;;;12.70;99.90;;;;;;5049764;28;20107;-71
2022/11/13 03:39:56;;;;;;;6.85;2.97;;;12.60;99.90;;;;;;5056514;28;20562;-71
2022/11/13 03:42:43;;;;;;;12.20;2.55;;;12.70;99.90;;;;;;5068804;28;20067;-71
2022/11/13 03:45:30;;;;;;;4.43;2.30;;;12.60;99.90;;;;;;5070604;28;20045;-71
2022/11/13 03:48:16;;;;;;;6.07;1.80;;;12.60;99.90;;;;;;5070386;28;20049;-70
2022/11/13 03:51:02;;;;;;;2.97;1.65;;;12.60;99.90;;;;;;5070828;28;20052;-70
2022/11/13 03:53:50;;;;;;;3.58;1.50;;;12.60;99.90;;;;;;5069879;28;20153;-71
2022/11/13 03:56:36;;;;;;;3.10;1.67;;;12.60;99.90;;;;;;5070736;28;20045;-72
2022/11/13 03:59:22;;;;;;;3.78;1.50;;;12.60;99.90;;;;;;5069860;28;20410;-72
2022/11/13 04:02:08;;;;;;;5.47;1.33;;;12.60;99.90;;;;;;5060321;28;20490;-76
2022/11/13 04:04:54;;;;;;;2.53;1.50;;;12.60;99.90;;;;;;5050683;28;20301;-71
2022/11/13 04:07:40;;;;;;;4.10;1.27;;;12.60;99.90;;;;;;5049484;28;20045;-71
2022/11/13 04:10:26;;;;;;;6.57;1.70;;;12.60;99.90;;;;;;5048724;28;20056;-72
2022/11/13 04:13:12;;;;;;;4.30;1.40;;;12.50;99.90;;;;;;5048251;28;20049;-71
2022/11/13 04:15:58;;;;;;;4.75;1.65;;;12.50;99.90;;;;;;5048524;28;20371;-71
2022/11/13 04:18:44;;;;;;;3.83;1.20;;;12.50;99.90;;;;;;5048516;28;20139;-72
2022/11/13 04:21:31;;;;;;;1.95;1.17;;;12.50;99.90;;;;;;5049856;28;20040;-72
2022/11/13 04:24:17;;;;;;;4.82;1.80;;;12.50;99.90;;;;;;5034302;28;20554;-71
2022/11/13 04:27:03;;;;;;;3.88;1.92;;;12.50;99.90;;;;;;5035886;28;20110;-72
2022/11/13 04:29:49;;;;;;;2.63;1.10;;;12.50;99.90;;;;;;5049998;28;20048;-72
2022/11/13 04:32:35;;;;;;;4.10;1.40;;;12.50;99.90;;;;;;5050274;28;20078;-72
2022/11/13 04:35:24;;;;;;;3.72;1.40;;;12.50;99.90;;;;;;5069096;28;20205;-71
2022/11/13 04:38:11;;;;;;;2.45;1.13;;;12.50;99.90;;;;;;5068317;28;20094;-71
2022/11/13 04:44:02;;;;;;;3.13;1.92;;;12.60;99.90;;;;;;5069608;28;20072;-72
2022/11/13 04:46:48;;;;;;;7.40;2.27;;;12.60;99.90;;;;;;5052888;28;20510;-71
2022/11/13 04:49:35;;;;;;;6.38;2.00;;;12.60;99.90;;;;;;5067978;28;20660;-71
2022/11/13 04:52:21;;;;;;;2.23;1.50;;;12.60;99.90;;;;;;5069356;28;20055;-70
2022/11/13 04:55:08;;;;;;;1.35;1.05;;;12.60;99.90;;;;;;5068249;28;20358;-71
2022/11/13 04:57:54;;;;;;;3.00;1.42;;;12.60;99.90;;;;;;5068277;28;20459;-71
2022/11/13 05:00:40;;;;;;;3.47;1.93;;;12.70;99.90;;;;;;5069587;28;20041;-71
2022/11/13 05:03:26;;;;;;;5.90;1.97;;;12.70;99.90;;;;;;5069269;28;20047;-70
2022/11/13 05:06:12;;;;;;;4.03;1.27;;;12.70;99.90;;;;;;5068209;28;20618;-71
2022/11/13 05:08:58;;;;;;;2.28;1.27;;;12.70;99.90;;;;;;5068625;28;20058;-70
2022/11/13 05:11:44;;;;;;;2.30;1.42;;;12.70;99.90;;;;;;5068362;28;20418;-72
2022/11/13 05:14:30;;;;;;;6.10;1.40;;;12.60;99.90;;;;;;5053954;28;20499;-73
2022/11/13 05:17:16;;;;;;;4.95;1.60;;;12.60;99.90;;;;;;5068520;28;20906;-71
2022/11/13 05:20:04;;;;;;;3.80;1.60;;;12.70;99.90;;;;;;5069406;28;20445;-71
2022/11/13 05:22:50;;;;;;;2.38;1.10;;;12.60;99.90;;;;;;5068549;28;20103;-71
2022/11/13 05:25:36;;;;;;;2.50;1.70;;;12.60;99.90;;;;;;5054389;28;20514;-75
2022/11/13 05:28:24;;;;;;;3.03;1.50;;;12.60;99.90;;;;;;5068824;28;20127;-74
2022/11/13 05:31:14;;;;;;;2.92;1.30;;;12.60;99.90;;;;;;5069136;28;20491;-72
2022/11/13 05:34:03;;;;;;;6.63;1.40;;;12.50;99.90;;;;;;5053811;28;20049;-70
2022/11/13 05:36:50;;;;;;;6.13;1.63;;;12.50;99.90;;;;;;5053969;28;20063;-71
2022/11/13 05:39:36;;;;;;;3.72;1.83;;;12.60;99.90;;;;;;5068048;28;20037;-71
2022/11/13 05:42:22;;;;;;;4.93;1.60;;;12.60;99.90;;;;;;5053164;28;20057;-70
2022/11/13 05:45:09;;;;;;;6.00;1.98;;;12.60;99.90;;;;;;5053818;28;20080;-72
2022/11/13 05:47:56;;;;;;;6.20;1.60;;;12.60;99.90;;;;;;5067807;28;20048;-72
2022/11/13 05:50:42;;;;;;;6.18;1.75;;;12.70;99.90;;;;;;5066308;28;20041;-71
2022/11/13 05:53:29;;;;;;;5.75;2.17;;;12.70;99.90;;;;;;5050694;28;20044;-71
2022/11/13 05:56:20;;;;;;;;;;;12.70;99.90;;;;;;5065840;28;20044;-72
2022/11/13 05:59:06;;;;;;;6.82;2.30;;;12.80;99.90;;;;;;5050620;28;20415;-71
2022/11/13 06:01:52;;;;;;;5.93;2.73;;;12.80;99.90;;;;;;5036534;28;20127;-70
2022/11/13 06:04:39;;;;;;;9.93;1.98;;;12.90;99.90;;;;;;5068401;28;20298;-72
2022/11/13 06:07:25;;;;;;;6.68;2.53;;;12.90;99.90;;;;;;5072223;28;20836;-71
2022/11/13 06:10:12;;;;;;;5.25;1.55;;;13.00;99.90;;;;;;5056677;28;20502;-69
2022/11/13 06:12:58;;;;;;;11.35;3.13;;;13.00;99.90;;;;;;5072734;28;20044;-70
2022/11/13 06:15:44;;;;;;;7.60;2.88;;;13.00;99.90;;;;;;5052367;28;20071;-70
2022/11/13 06:18:30;;;;;;;6.70;2.33;;;13.10;99.90;;;;;;5052090;28;20415;-71
2022/11/13 06:21:18;;;;;;;;;;;13.10;99.90;;;;;;5051041;28;20045;-71
2022/11/13 06:24:06;;;;;;;5.72;2.25;;;13.20;99.90;;;;;;5066842;28;19920;-70
2022/11/13 06:26:52;;;;;;;6.20;2.75;;;13.30;99.90;;;;;;5052409;28;20495;-71
2022/11/13 06:29:38;;;;;;;6.55;2.53;;;13.30;99.90;;;;;;5051005;28;20037;-70
2022/11/13 06:32:24;;;;;;;5.90;1.98;;;13.40;99.90;;;;;;5050823;28;20123;-71
2022/11/13 06:35:10;;;;;;;6.75;2.72;;;13.40;99.90;;;;;;5052334;28;20090;-70
2022/11/13 06:37:56;;;;;;;6.83;2.77;;;13.50;99.90;;;;;;5050806;28;20052;-70
2022/11/13 06:40:42;;;;;;;10.67;3.37;;;13.60;99.90;;;;;;5051634;28;20045;-71
2022/11/13 06:43:29;;;;;;;4.20;2.30;;;13.60;99.90;;;;;;5035797;28;20088;-71
2022/11/13 06:46:17;;;;;;;;;;;13.70;99.90;;;;;;5037644;28;20056;-70
2022/11/13 06:49:03;;;;;;;6.63;3.28;;;13.70;99.90;;;;;;5037274;28;19927;-70
2022/11/13 06:51:49;;;;;;;8.05;3.28;;;13.80;99.90;;;;;;5052159;28;20111;-71
2022/11/13 06:54:35;;;;;;;4.03;2.05;;;13.80;99.90;;;;;;5050922;28;20231;-70
2022/11/13 06:57:21;;;;;;;11.57;4.20;;;13.90;99.90;;;;;;5050992;28;20170;-71
2022/11/13 07:00:08;;;;;;;9.75;3.65;;;13.90;99.90;;;;;;5051898;28;20084;-70
2022/11/13 07:02:55;;;;;;;6.03;2.60;;;13.90;99.90;;;;;;5036914;28;20065;-71
2022/11/13 07:05:41;;;;;;;9.80;3.27;;;13.90;99.90;;;;;;5050661;28;20044;-71
2022/11/13 07:08:27;;;;;;;7.82;3.55;;;14.00;99.90;;;;;;5050884;28;20314;-71
2022/11/13 07:11:16;;;;;;;9.15;2.53;;;13.90;99.90;;;;;;5037170;28;20052;-71
2022/11/13 07:14:01;;;;;;;5.53;2.20;;;14.00;99.90;;;;;;5055618;28;20056;-70
2022/11/13 07:16:48;;;;;;;7.93;3.38;;;14.00;99.90;;;;;;5070779;28;20052;-70
2022/11/13 07:19:52;;;;;;;11.13;3.20;;;14.00;99.90;;;;;;5070609;28;20052;-70
2022/11/13 07:22:38;;;;;;;6.80;2.92;;;14.00;99.90;;;;;;5071635;28;20127;-70
2022/11/13 07:25:25;;;;;;;10.50;3.13;;;14.00;99.90;;;;;;5072280;28;20041;-72
2022/11/13 07:28:11;;;;;;;5.18;2.28;;;14.00;99.90;;;;;;5056635;28;20121;-70
2022/11/13 07:30:58;;;;;;;8.15;3.50;;;14.10;99.90;;;;;;5071715;28;20063;-70
2022/11/13 07:33:47;;;;;;;4.00;2.42;;;14.10;99.90;;;;;;5069900;28;20036;-69
2022/11/13 07:36:34;;;;;;;4.70;2.03;;;14.10;99.90;;;;;;5071113;28;20049;-70
2022/11/13 07:39:20;;;;;;;4.00;1.83;;;14.10;99.90;;;;;;5066110;28;20491;-70
2022/11/13 07:42:05;;;;;;;6.95;2.40;;;14.10;99.90;;;;;;5070010;28;20053;-70
2022/11/13 07:44:52;;;;;;;4.95;2.50;;;14.20;99.90;;;;;;5056447;28;20063;-70
2022/11/13 07:47:38;;;;;;;5.95;2.70;;;14.10;99.90;;;;;;5071225;28;20048;-70
2022/11/13 07:50:27;;;;;;;5.28;2.33;;;14.20;99.90;;;;;;5068500;28;20078;-71
2022/11/13 07:53:13;;;;;;;5.65;2.22;;;14.30;99.90;;;;;;5069912;28;20050;-71
2022/11/13 07:56:01;;;;;;;4.63;1.90;;;14.40;99.90;;;;;;5069445;28;20044;-71
2022/11/13 07:58:46;;;;;;;5.07;2.05;;;14.40;99.90;;;;;;5069649;28;20052;-71
2022/11/13 08:01:32;;;;;;;4.35;1.92;;;14.50;99.90;;;;;;5070319;28;20079;-70
2022/11/13 08:04:18;;;;;;;5.32;1.83;;;14.50;99.90;;;;;;5055488;28;20056;-70
2022/11/13 08:07:05;;;;;;;4.30;1.98;;;14.50;99.90;;;;;;5069511;28;20060;-70
2022/11/13 08:09:51;;;;;;;4.05;2.13;;;14.60;99.90;;;;;;5055210;28;20082;-70
2022/11/13 08:12:37;;;;;;;3.83;2.50;;;14.60;99.90;;;;;;5054957;28;20045;-71
2022/11/13 08:15:23;;;;;;;4.68;2.22;;;14.60;99.90;;;;;;5055231;28;20294;-69
2022/11/13 08:18:09;;;;;;;5.55;2.45;;;14.70;99.90;;;;;;5055203;28;20075;-70
2022/11/13 08:20:59;;;;;;;3.55;2.17;;;14.90;99.90;;;;;;5069199;28;20502;-71
2022/11/13 08:23:45;;;;;;;2.92;1.75;;;14.90;99.90;;;;;;5054092;28;20051;-70
2022/11/13 08:26:32;;;;;;;;;;;15.00;99.90;;;;;;5069611;28;20048;-71
2022/11/13 08:29:18;;;;;;;3.72;2.13;;;15.10;99.90;;;;;;5068532;28;19973;-70
2022/11/13 08:32:04;;;;;;;3.55;1.90;;;15.20;99.90;;;;;;5054971;28;20777;-70
2022/11/13 08:34:50;;;;;;;5.82;3.00;;;15.30;99.90;;;;;;5068928;28;20045;-70
2022/11/13 08:37:37;;;;;;;3.83;2.13;;;15.40;99.90;;;;;;5070117;28;20048;-70
2022/11/13 08:40:22;;;;;;;8.30;2.97;;;15.50;99.90;;;;;;5067958;28;20056;-71
2022/11/13 08:43:09;;;;;;;5.18;2.47;;;15.60;99.90;;;;;;5069291;28;20064;-70
2022/11/13 08:45:55;;;;;;;4.88;3.05;;;15.70;99.90;;;;;;5068814;28;20713;-71
2022/11/13 08:48:41;;;;;;;4.38;3.25;;;15.80;99.90;;;;;;5068008;28;20051;-72
2022/11/13 08:51:27;;;;;;;8.57;3.20;;;15.90;99.90;;;;;;5068796;28;20139;-70
2022/11/13 08:54:14;;;;;;;5.90;2.42;;;15.90;99.90;;;;;;5067987;28;20451;-71
2022/11/13 08:57:00;;;;;;;4.40;2.50;;;15.90;99.90;;;;;;5068177;28;20123;-70
2022/11/13 08:59:49;;;;;;;6.88;2.17;;;15.90;99.90;;;;;;5068182;28;20045;-70
2022/11/13 09:02:35;;;;;;;10.25;2.60;;;16.00;99.90;;;;;;5053374;28;20044;-71
2022/11/13 09:05:22;;;;;;;7.53;3.53;;;16.00;99.90;;;;;;5054020;28;20087;-70
2022/11/13 09:08:09;;;;;;;5.47;3.15;;;16.10;99.90;;;;;;5053599;28;20056;-74
2022/11/13 09:10:55;;;;;;;5.85;3.22;;;16.20;99.90;;;;;;5051643;28;20550;-70
2022/11/13 09:13:45;;;;;;;4.07;3.10;;;16.30;99.90;;;;;;5068150;28;20115;-70
2022/11/13 09:16:33;;;;;;;10.05;3.45;;;16.30;99.90;;;;;;5068390;28;20041;-72
2022/11/13 09:19:19;;;;;;;6.43;2.97;;;16.20;99.90;;;;;;5067619;28;20036;-70
2022/11/13 09:22:05;;;;;;;4.90;3.22;;;16.20;99.90;;;;;;5067947;28;20060;-70
2022/11/13 09:24:51;;;;;;;10.07;3.00;;;16.20;99.90;;;;;;5052908;28;20045;-70
2022/11/13 09:27:37;;;;;;;7.95;2.75;;;16.20;99.90;;;;;;5067395;28;20043;-70
2022/11/13 09:30:24;;;;;;;8.32;3.03;;;16.30;99.90;;;;;;5053656;28;20056;-70
2022/11/13 09:33:14;;;;;;;3.92;3.47;;;16.30;99.90;;;;;;5056063;28;20147;-71
2022/11/13 09:36:01;;;;;;;5.30;2.75;;;16.30;99.90;;;;;;5071715;28;20063;-70
2022/11/13 09:38:47;;;;;;;6.75;3.60;;;16.30;99.90;;;;;;5071865;28;20044;-70
2022/11/13 09:41:52;;;;;;;8.15;2.83;;;16.30;99.90;;;;;;5071843;28;20044;-71
2022/11/13 09:44:43;;;;;;;7.88;3.38;;;16.20;99.90;;;;;;5071548;28;20208;-70
2022/11/13 09:47:36;;;;;;;6.85;4.00;;;16.20;99.90;;;;;;5057584;28;20138;-70
2022/11/13 09:50:26;;;;;;;9.63;3.50;;;16.10;99.90;;;;;;5071813;28;20053;-71
2022/11/13 09:53:13;;;;;;;6.25;3.70;;;16.10;99.90;;;;;;5071398;28;20190;-70
2022/11/13 09:56:22;;;;;;;5.00;3.50;;;16.10;99.90;;;;;;5072769;28;20162;-70
2022/11/13 09:59:43;;;;;;;4.07;2.47;;;16.10;99.90;;;;;;5071649;28;20060;-70
2022/11/13 10:02:43;;;;;;;7.30;3.22;;;16.00;99.90;;;;;;5050952;28;20045;-70
2022/11/13 10:05:50;;;;;;;5.78;3.10;;;16.00;99.90;;;;;;5037738;28;20059;-70
2022/11/13 10:09:00;;;;;;;6.00;2.63;;;15.90;99.90;;;;;;5052805;28;20581;-70
2022/11/13 10:12:00;;;;;;;4.60;2.92;;;15.90;99.90;;;;;;5037171;28;20052;-70
2022/11/13 10:14:51;;;;;;;6.40;3.28;;;16.00;99.90;;;;;;5036781;28;20053;-70
2022/11/13 10:17:43;;;;;;;5.53;2.88;;;16.00;99.90;;;;;;5051138;28;20593;-70
2022/11/13 10:20:29;;;;;;;6.75;3.10;;;16.00;99.90;;;;;;5066927;28;20064;-70
2022/11/13 10:23:28;;;;;;;4.20;2.70;;;16.00;99.90;;;;;;5036031;28;20585;-69
2022/11/13 10:26:19;;;;;;;5.03;3.10;;;15.90;99.90;;;;;;5060706;28;20048;-71
2022/11/13 10:29:17;;;;;;;4.45;2.47;;;15.90;99.90;;;;;;5046316;28;20072;-69
2022/11/13 10:32:17;;;;;;;4.47;2.50;;;15.90;99.90;;;;;;5070360;28;20096;-71
2022/11/13 10:35:04;;;;;;;5.40;2.58;;;15.90;99.90;;;;;;5056471;28;20076;-71
2022/11/13 10:38:01;;;;;;;5.70;2.75;;;15.90;99.90;;;;;;5070489;28;20102;-70
2022/11/13 10:40:51;;;;;;;4.80;2.65;;;16.00;99.90;;;;;;5070725;28;20044;-69
2022/11/13 10:43:49;;;;;;;;;;;16.00;99.90;;;;;;5069845;28;20197;-69
2022/11/13 10:46:35;;;;;;;7.85;4.00;;;16.10;99.90;;;;;;5071723;28;19924;-70
2022/11/13 10:49:27;;;;;;;5.73;2.10;;;16.20;99.90;;;;;;5070735;28;20076;-69
2022/11/13 10:52:26;;;;;;;4.97;3.85;;;16.20;99.90;;;;;;5069815;28;20489;-70
2022/11/13 10:55:21;;;;;;;4.93;2.50;;;16.30;99.90;;;;;;5069779;28;20218;-70
2022/11/13 10:58:13;;;;;;;4.15;2.80;;;16.30;99.90;;;;;;5070345;28;20147;-70
2022/11/13 11:00:59;;;;;;;5.90;2.58;;;16.40;99.90;;;;;;5050178;28;20068;-70
2022/11/13 11:03:49;;;;;;;7.57;2.92;;;16.50;99.90;;;;;;5035975;28;20045;-69
2022/11/13 11:06:38;;;;;;;3.63;2.65;;;16.50;99.90;;;;;;5050252;28;20057;-69
2022/11/13 11:09:48;;;;;;;3.95;2.55;;;16.50;99.90;;;;;;5049918;28;20048;-70
2022/11/13 11:12:34;;;;;;;4.70;3.13;;;16.60;99.90;;;;;;5049860;28;20048;-69
2022/11/13 11:15:24;;;;;;;4.68;3.30;;;16.60;99.90;;;;;;5035100;28;20056;-71
2022/11/13 11:18:27;;;;;;;5.57;2.60;;;16.70;99.90;;;;;;5035742;28;20052;-71
2022/11/13 11:21:18;;;;;;;5.28;2.63;;;16.70;99.90;;;;;;5035930;28;20522;-69
2022/11/13 11:24:14;;;;;;;3.38;2.25;;;16.70;99.90;;;;;;5049360;28;20045;-69
2022/11/13 11:27:21;;;;;;;4.60;3.17;;;16.70;99.90;;;;;;5050780;28;20048;-72
2022/11/13 11:30:13;;;;;;;;;;;16.80;99.90;;;;;;5050306;28;20037;-69
2022/11/13 11:33:27;;;;;;;6.15;2.70;;;16.80;99.90;;;;;;5050929;28;19928;-69
2022/11/13 11:36:33;;;;;;;6.05;2.78;;;16.90;99.90;;;;;;5035155;28;20049;-70
2022/11/13 11:39:46;;;;;;;5.00;2.78;;;16.90;99.90;;;;;;5048467;28;20499;-71
2022/11/13 11:42:46;;;;;;;9.73;4.30;;;16.90;99.90;;;;;;5049040;28;20853;-70
2022/11/13 11:45:40;;;;;;;12.90;5.22;;;17.00;99.90;;;;;;5037473;28;20135;-69
2022/11/13 11:48:29;;;;;;;6.85;3.58;;;17.00;99.90;;;;;;5068983;28;20068;-71
2022/11/13 11:51:18;;;;;;;6.43;3.65;;;17.00;99.90;;;;;;5070006;28;20137;-69
2022/11/13 11:54:22;;;;;;;5.55;3.50;;;16.90;99.90;;;;;;5055230;28;20453;-71
2022/11/13 11:57:42;;;;;;;7.80;3.60;;;16.90;99.90;;;;;;5068626;28;20048;-70
2022/11/13 12:00:31;;;;;;;14.70;9.00;;;16.90;99.90;;;;;;5067671;28;20106;-70
2022/11/13 12:03:32;;;;;;;8.27;5.78;;;16.80;99.90;;;;;;5068645;28;20044;-70
2022/11/13 12:06:37;;;;;;;8.45;4.43;;;16.70;99.90;;;;;;5068364;28;20429;-69
2022/11/13 12:09:55;;;;;;;6.35;3.85;;;16.70;99.90;;;;;;5054626;28;20419;-70
2022/11/13 12:12:57;;;;;;;8.70;4.50;;;16.70;99.90;;;;;;5067990;28;20142;-71
2022/11/13 12:15:57;;;;;;;5.30;3.92;;;16.70;99.90;;;;;;5069274;28;20471;-73
2022/11/13 12:19:22;;;;;;;5.60;3.60;;;16.70;99.90;;;;;;5055025;28;20052;-69
2022/11/13 12:22:31;;;;;;;4.75;3.33;;;16.70;99.90;;;;;;5068791;28;20037;-70
2022/11/13 12:25:23;;;;;;;6.15;3.67;;;16.70;99.90;;;;;;5068924;28;20048;-70
2022/11/13 12:28:18;;;;;;;5.65;3.90;;;16.70;99.90;;;;;;5054097;28;20044;-74
2022/11/13 12:31:22;;;;;;;5.00;2.83;;;16.60;99.90;;;;;;5068538;28;20064;-70
2022/11/13 12:34:17;;;;;;;6.22;3.90;;;16.60;99.90;;;;;;5067144;28;20470;-70
2022/11/13 12:37:11;;;;;;;6.38;3.97;;;16.70;99.90;;;;;;5065693;28;20067;-70
2022/11/13 12:40:06;;;;;;;6.40;3.45;;;16.70;99.90;;;;;;5068654;28;20148;-71
2022/11/13 12:42:59;;;;;;;5.78;3.67;;;16.70;99.90;;;;;;5067978;28;20131;-70
2022/11/13 12:45:58;;;;;;;5.43;3.40;;;16.70;99.90;;;;;;5067964;28;20088;-71
2022/11/13 12:48:47;;;;;;;13.18;3.95;;;16.70;99.90;;;;;;5065107;28;20040;-70
2022/11/13 12:51:40;;;;;;;7.55;3.63;;;16.80;99.90;;;;;;5063104;28;20040;-68
2022/11/13 12:54:36;;;;;;;6.03;3.97;;;16.80;99.90;;;;;;5064958;28;20051;-68
2022/11/13 12:57:24;;;;;;;5.00;3.20;;;16.70;99.90;;;;;;5066278;28;20047;-69
2022/11/13 13:00:24;;;;;;;5.78;3.30;;;16.60;99.90;;;;;;5055709;28;20505;-69
2022/11/13 13:03:19;;;;;;;6.13;3.17;;;16.70;99.90;;;;;;5040969;28;20143;-70
2022/11/13 13:06:17;;;;;;;6.93;3.15;;;16.60;99.90;;;;;;5056573;28;20052;-68
2022/11/13 13:09:22;;;;;;;7.60;3.03;;;16.60;99.90;;;;;;5034391;28;20049;-68
2022/11/13 13:12:46;;;;;;;8.10;3.58;;;16.70;99.90;;;;;;5057004;28;20066;-72
2022/11/13 13:15:37;;;;;;;6.70;3.88;;;16.70;99.90;;;;;;5055318;28;20040;-69
2022/11/13 13:18:27;;;;;;;4.28;3.38;;;16.70;99.90;;;;;;5049576;28;20044;-69
2022/11/13 13:21:16;;;;;;;8.35;5.03;;;16.70;99.90;;;;;;5048839;28;20072;-70
2022/11/13 13:24:09;;;;;;;4.32;2.67;;;16.80;99.90;;;;;;5074539;28;20043;-70
2022/11/13 13:26:55;;;;;;;4.53;3.00;;;16.80;99.90;;;;;;5067508;28;20533;-71
2022/11/13 13:29:41;;;;;;;5.93;2.40;;;16.70;99.90;;;;;;5059944;28;20471;-68
2022/11/13 13:32:46;;;;;;;5.22;3.30;;;16.70;99.90;;;;;;5067767;28;20040;-68
2022/11/13 13:35:56;;;;;;;5.55;3.05;;;16.70;99.90;;;;;;5034375;28;20450;-68
2022/11/13 13:39:01;;;;;;;9.40;3.63;;;16.70;99.90;;;;;;5055997;28;20398;-69
2022/11/13 13:41:54;;;;;;;6.32;3.13;;;16.70;99.90;;;;;;5052822;28;20071;-72
2022/11/13 13:45:13;;;;;;;7.85;4.05;;;16.70;99.90;;;;;;5056026;28;20039;-70
2022/11/13 13:48:00;;;;;;;9.10;4.18;;;16.70;99.90;;;;;;5055661;28;20037;-71
2022/11/13 13:50:49;;;;;;;9.00;3.10;;;16.70;99.90;;;;;;5044573;28;20106;-72
2022/11/13 13:53:36;;;;;;;9.45;3.63;;;16.70;99.90;;;;;;5036247;28;20049;-69
2022/11/13 13:56:23;;;;;;;6.90;4.45;;;16.70;99.90;;;;;;5039019;28;20415;-72
2022/11/13 13:59:17;;;;;;;5.63;3.58;;;16.60;99.90;;;;;;5070342;28;20043;-71
2022/11/13 14:02:15;;;;;;;8.10;4.50;;;16.60;99.90;;;;;;5045335;28;20044;-69
2022/11/13 14:05:02;;;;;;;6.57;4.40;;;16.60;99.90;;;;;;5068060;28;20037;-70
2022/11/13 14:07:48;;;;;;;6.70;3.33;;;16.70;99.90;;;;;;5067110;28;20049;-69
2022/11/13 14:10:37;;;;;;;6.30;4.63;;;16.70;99.90;;;;;;5056915;28;20039;-69
2022/11/13 14:13:27;;;;;;;4.95;3.40;;;16.80;99.90;;;;;;5084706;28;20051;-70
2022/11/13 14:16:13;;;;;;;6.05;2.60;;;16.80;99.90;;;;;;5067761;28;20040;-71
2022/11/13 14:19:04;;;;;;;5.22;3.15;;;16.90;99.90;;;;;;5063707;28;20077;-70
2022/11/13 14:21:56;;;;;;;6.03;3.15;;;16.90;99.90;;;;;;5089753;28;20043;-69
2022/11/13 14:24:56;;;;;;;9.13;4.28;;;16.90;99.90;;;;;;5075134;28;20565;-69
2022/11/13 14:27:43;;;;;;;4.53;3.55;;;16.80;99.90;;;;;;5058195;28;20127;-73
2022/11/13 14:30:30;;;;;;;7.32;2.65;;;16.80;99.90;;;;;;5046174;28;20145;-70
2022/11/13 14:33:20;;;;;;;;;;;16.80;99.90;;;;;;5059339;28;20124;-70
2022/11/13 14:36:07;;;;;;;7.82;4.75;;;16.70;99.90;;;;;;5084461;28;19924;-71
2022/11/13 14:38:53;;;;;;;;;;;16.80;99.90;;;;;;5073900;28;20037;-70
2022/11/13 14:41:55;;;;;;;5.72;3.47;;;16.80;99.90;;;;;;5086881;28;19924;-70
2022/11/13 14:44:42;;;;;;;9.65;4.75;;;16.70;99.90;;;;;;5072691;28;20104;-73
2022/11/13 14:47:36;;;;;;;7.97;3.75;;;16.70;99.90;;;;;;5090315;28;20032;-72
2022/11/13 14:50:26;;;;;;;5.18;3.15;;;16.60;99.90;;;;;;5071094;28;20116;-69